Current Weather

Heathrow

Heathrow, United Kingdom (EGLL)

Report from: Tuesday, August 16, 2022 12:50 AM BST
Current time: Tuesday, August 16, 2022 1:07 AM BST

Nearby weather
Weather history
Weather forecast

Temperature21.0°C (69.8°F)
Dew point13.0°C (55.4°F)
Winds 7 kts (3.6 m/s, 8.1 mph) West-Southwest (240°)
Visibility6.2 mi. (10 km)
Clouds Sky clear
Altimeter29.71 in.Hg (1006 mB)
Relative humidity60 %
Density altitude1,155 ft. (352 m)
Remarks Fully automated report
Corrected report
No clouds detected
No significant changes expected in the next two hours
Flight conditions Visual Meteorological Conditions
Raw dataCOR EGLL 152350Z AUTO 24007KT 9999 NCD 21/13 Q1006 NOSIG
An error has occurred. This application may no longer respond until reloaded. Reload 🗙